Time;durP1;ratioP1;P1;durP2;ratioP2;P2;SDS_P1;SDS_P2;PMS_P1;PMS_P2;Temp;Humidity;BMP_temperature;BMP_pressure;BME280_temperature;BME280_humidity;BME280_pressure;Samples;Min_cycle;Max_cycle;Signal;HPM_P1;HPM_P2
2022/08/15 00:01:25;;;;;;;2.95;2.33;;;29.00;44.50;;;-147.20;100.00;58430.41;5113021;28;20044;-10
2022/08/15 00:03:56;;;;;;;2.47;2.22;;;28.90;44.50;;;-147.20;100.00;58430.41;5113016;28;20059;-9
2022/08/15 00:06:28;;;;;;;3.03;2.80;;;29.00;44.50;;;-147.20;100.00;58430.41;5112961;28;20100;-9
2022/08/15 00:09:01;;;;;;;2.53;2.33;;;29.00;44.50;;;-147.20;100.00;58430.41;5113561;28;20059;-10
2022/08/15 00:11:35;;;;;;;2.30;2.10;;;29.00;44.50;;;-147.20;100.00;58430.41;5113286;28;20039;-9
2022/08/15 00:14:17;;;;;;;2.78;2.25;;;29.00;44.50;;;-147.20;100.00;58430.41;5113305;28;20048;-9
2022/08/15 00:16:48;;;;;;;2.65;2.40;;;29.00;44.60;;;-147.20;100.00;58430.41;5113068;28;20476;-9
2022/08/15 00:19:26;;;;;;;2.85;2.17;;;29.00;44.50;;;33.85;25.88;101018.00;5112829;28;20092;-9
2022/08/15 00:21:59;;;;;;;2.50;2.10;;;29.00;44.50;;;33.07;27.83;100355.91;5093412;28;20051;-10
2022/08/15 00:24:30;;;;;;;3.05;2.20;;;28.90;44.50;;;32.97;27.97;100348.91;5112869;28;20051;-9
2022/08/15 00:27:01;;;;;;;3.05;2.20;;;28.90;44.50;;;32.93;27.98;100353.03;5112964;28;20180;-9
2022/08/15 00:29:31;;;;;;;2.55;2.35;;;28.90;44.50;;;32.91;28.24;100352.34;5112554;28;20039;-10
2022/08/15 00:32:00;;;;;;;2.55;2.38;;;28.90;44.60;;;32.89;28.45;100351.69;5116129;28;20043;-9
2022/08/15 00:34:27;;;;;;;2.47;2.10;;;28.90;44.60;;;32.89;28.17;100346.28;5116356;28;20405;-10
2022/08/15 00:36:53;;;;;;;2.70;2.50;;;28.90;44.60;;;32.85;28.37;100336.88;5116579;28;20043;-9
2022/08/15 00:39:22;;;;;;;2.65;2.45;;;28.90;44.60;;;32.84;28.26;100338.72;5116051;28;20370;-10
2022/08/15 00:41:50;;;;;;;2.50;2.30;;;28.90;44.60;;;32.83;28.17;100334.34;5097433;28;20122;-9
2022/08/15 00:44:30;;;;;;;2.58;2.38;;;28.90;44.60;;;32.81;28.37;100331.00;5097739;28;20036;-9
2022/08/15 00:47:07;;;;;;;2.95;2.38;;;28.90;44.60;;;32.82;28.22;100324.53;5116187;28;20040;-10
2022/08/15 00:49:35;;;;;;;2.97;2.45;;;28.90;44.60;;;32.82;28.28;100321.81;5115999;28;20404;-9
2022/08/15 00:52:13;;;;;;;2.30;2.10;;;28.90;44.60;;;32.79;28.48;100322.19;5115880;28;20101;-10
2022/08/15 00:55:13;;;;;;;2.75;2.55;;;28.80;44.60;;;32.80;28.29;100326.59;5115935;28;20039;-9
2022/08/15 00:57:44;;;;;;;2.58;2.17;;;28.80;44.60;;;32.81;28.58;100322.88;5115480;28;20047;-10
2022/08/15 01:00:15;;;;;;;;;;;28.90;45.20;;;32.92;28.05;100320.72;5097936;28;20064;-10
2022/08/15 01:02:42;;;;;;;2.78;2.30;;;28.80;44.60;;;32.85;28.47;100317.91;5116157;28;19916;-9
2022/08/15 01:05:13;;;;;;;2.50;2.30;;;28.80;44.60;;;32.80;28.48;100320.34;5097380;28;20397;-9
2022/08/15 01:07:41;;;;;;;2.65;2.45;;;28.90;44.60;;;32.78;28.57;100317.81;5097794;28;20048;-10
2022/08/15 01:10:11;;;;;;;2.75;2.55;;;28.90;44.60;;;32.78;28.24;100312.41;5115716;28;20071;-9
2022/08/15 01:12:40;;;;;;;2.40;2.20;;;28.90;44.60;;;32.81;28.66;100320.16;5115967;28;20066;-10
2022/08/15 01:15:15;;;;;;;2.50;2.30;;;28.90;44.70;;;32.77;28.70;100318.00;5096941;28;20059;-10
2022/08/15 01:17:43;;;;;;;3.58;2.40;;;28.80;44.60;;;32.77;28.60;100316.13;5097632;28;20043;-10
2022/08/15 01:20:23;;;;;;;2.33;2.13;;;28.80;44.70;;;32.72;28.63;100310.44;5115582;28;20048;-9
2022/08/15 01:23:01;;;;;;;2.78;2.45;;;28.80;44.70;;;32.77;28.70;100310.72;5115595;28;20047;-10
2022/08/15 01:25:55;;;;;;;2.60;2.40;;;28.80;44.70;;;32.70;28.31;100298.13;5097565;28;20052;-9
2022/08/15 01:28:29;;;;;;;2.83;2.60;;;28.80;44.80;;;32.70;28.45;100298.13;5095911;28;20074;-10
2022/08/15 01:31:00;;;;;;;2.70;2.50;;;28.80;44.80;;;32.72;28.47;100296.06;5115647;28;20097;-9
2022/08/15 01:33:31;;;;;;;2.38;2.17;;;28.80;44.80;;;32.73;28.38;100301.31;5097467;28;20047;-9
2022/08/15 01:35:59;;;;;;;2.50;2.30;;;28.80;44.80;;;32.71;28.66;100286.25;5115345;28;20062;-9
2022/08/15 01:38:27;;;;;;;2.50;2.30;;;28.80;44.80;;;32.72;28.69;100294.19;5080070;28;20108;-9
2022/08/15 01:41:44;;;;;;;2.78;2.58;;;28.80;44.80;;;32.72;28.64;100294.19;5095947;28;20050;-10
2022/08/15 01:44:51;;;;;;;2.83;2.33;;;28.80;44.90;;;32.71;28.44;100302.50;5096701;28;20635;-10
2022/08/15 01:47:26;;;;;;;3.00;2.60;;;28.70;44.80;;;32.69;28.72;100294.56;5094770;28;20082;-9
2022/08/15 01:50:32;;;;;;;2.60;2.40;;;28.70;44.80;;;32.68;28.43;100296.44;5062102;28;20052;-10
2022/08/15 01:53:17;;;;;;;2.42;2.22;;;28.70;44.80;;;32.67;28.80;100296.63;5081600;28;20064;-10
2022/08/15 01:55:53;;;;;;;3.10;2.90;;;28.70;44.90;;;32.67;28.38;100283.94;5095094;28;20095;-10
2022/08/15 01:58:22;;;;;;;;;;;28.70;44.90;;;32.79;28.25;100278.88;5079054;28;20078;-9
2022/08/15 02:00:57;;;;;;;2.80;2.60;;;28.70;45.00;;;32.66;28.70;100270.56;5096617;28;19924;-9
2022/08/15 02:03:33;;;;;;;2.50;2.30;;;28.70;44.90;;;32.65;28.80;100272.44;5095651;28;20055;-9
2022/08/15 02:06:12;;;;;;;2.45;2.22;;;28.70;45.00;;;32.61;28.43;100268.47;5096176;28;20385;-10
2022/08/15 02:08:41;;;;;;;2.70;2.20;;;28.70;44.90;;;32.63;28.32;100274.50;5096787;28;20096;-10
2022/08/15 02:11:15;;;;;;;2.70;2.50;;;28.70;44.90;;;32.61;28.77;100271.16;5096365;28;20043;-10
2022/08/15 02:13:46;;;;;;;2.88;2.55;;;28.60;44.90;;;32.62;28.56;100269.28;5096855;28;20134;-9
2022/08/15 02:16:17;;;;;;;2.53;2.33;;;28.60;44.90;;;32.60;28.48;100266.72;5096260;28;20039;-10
2022/08/15 02:18:43;;;;;;;2.40;2.20;;;28.60;44.90;;;32.63;28.58;100260.16;5114756;28;20397;-9
2022/08/15 02:21:10;;;;;;;2.95;2.45;;;28.70;45.00;;;32.60;28.82;100258.59;5096185;28;20062;-10
2022/08/15 02:23:36;;;;;;;3.03;2.35;;;28.60;44.90;;;32.61;28.54;100263.03;5096566;28;20448;-10
2022/08/15 02:26:05;;;;;;;3.38;2.38;;;28.60;44.90;;;32.57;28.84;100258.97;5114466;28;20499;-10
2022/08/15 02:28:32;;;;;;;2.63;2.42;;;28.60;44.90;;;32.58;28.62;100260.66;5096111;28;20047;-10
2022/08/15 02:31:00;;;;;;;2.92;2.60;;;28.60;45.00;;;32.59;28.57;100261.50;5078553;28;20137;-9
2022/08/15 02:33:27;;;;;;;2.80;2.60;;;28.60;45.00;;;32.59;28.71;100259.63;5096038;28;20040;-10
2022/08/15 02:35:54;;;;;;;3.03;2.30;;;28.60;44.90;;;32.59;28.83;100264.22;5095971;28;20424;-10
2022/08/15 02:38:20;;;;;;;2.80;2.50;;;28.60;44.90;;;32.59;28.79;100256.91;5114289;28;20044;-9
2022/08/15 02:40:50;;;;;;;2.90;2.40;;;28.60;44.90;;;32.55;28.59;100255.63;5095210;28;20055;-10
2022/08/15 02:43:18;;;;;;;2.85;2.65;;;28.60;44.90;;;32.60;28.68;100255.06;5096460;28;20477;-9
2022/08/15 02:45:47;;;;;;;2.20;2.00;;;28.60;44.90;;;32.61;28.88;100256.72;5114001;28;20126;-10
2022/08/15 02:48:15;;;;;;;4.10;2.80;;;28.60;45.00;;;32.60;28.82;100253.19;5095801;28;20146;-9
2022/08/15 02:50:42;;;;;;;2.80;2.60;;;28.60;44.90;;;32.55;28.81;100246.69;5096010;28;20093;-10
2022/08/15 02:53:19;;;;;;;3.08;2.40;;;28.70;45.00;;;32.57;28.79;100267.09;5114204;28;20091;-10
2022/08/15 02:55:48;;;;;;;4.10;2.10;;;28.60;44.90;;;32.57;28.60;100260.84;5094762;28;20106;-9
2022/08/15 02:58:15;;;;;;;2.70;2.50;;;28.60;45.50;;;32.58;28.76;100259.81;5094162;28;20044;-9
2022/08/15 03:00:47;;;;;;;2.80;2.50;;;28.60;45.00;;;32.58;28.65;100259.81;5092138;28;20043;-10
2022/08/15 03:03:15;;;;;;;2.50;2.10;;;28.60;44.90;;;32.59;28.76;100262.34;5095966;28;20092;-10
2022/08/15 03:05:47;;;;;;;3.60;2.70;;;28.60;45.00;;;32.59;28.53;100264.22;5078931;28;20401;-10
2022/08/15 03:08:13;;;;;;;3.72;2.47;;;28.60;45.00;;;32.58;29.08;100260.66;5079122;28;20075;-10
2022/08/15 03:10:40;;;;;;;2.47;2.28;;;28.60;44.90;;;32.57;28.52;100264.38;5093214;28;20044;-9
2022/08/15 03:13:14;;;;;;;2.55;2.35;;;28.60;44.90;;;32.56;28.85;100261.88;5095850;28;20046;-9
2022/08/15 03:15:52;;;;;;;2.22;2.05;;;28.60;44.90;;;32.58;28.52;100262.53;5095901;28;20169;-9
2022/08/15 03:18:21;;;;;;;3.10;2.80;;;28.60;44.90;;;32.56;28.87;100265.44;5078745;28;20047;-9
2022/08/15 03:20:51;;;;;;;4.03;2.35;;;28.60;44.90;;;32.56;28.54;100268.16;5095870;28;20058;-9
2022/08/15 03:23:22;;;;;;;2.60;2.40;;;28.60;44.90;;;32.56;28.99;100268.16;5095611;28;20454;-10
2022/08/15 03:25:52;;;;;;;2.95;2.65;;;28.60;45.00;;;32.54;28.69;100263.94;5095203;28;20497;-9
2022/08/15 03:28:25;;;;;;;3.33;2.60;;;28.60;45.00;;;32.53;28.87;100273.06;5111195;28;20051;-10
2022/08/15 03:30:51;;;;;;;3.22;2.25;;;28.60;45.00;;;32.55;28.52;100269.16;5112737;28;20050;-9
2022/08/15 03:33:18;;;;;;;2.50;2.30;;;28.60;45.00;;;32.50;28.64;100255.34;5094300;28;20130;-10
2022/08/15 03:35:50;;;;;;;2.50;2.30;;;28.60;45.00;;;32.56;28.90;100262.72;5095444;28;20477;-10
2022/08/15 03:38:19;;;;;;;3.00;2.80;;;28.60;45.00;;;32.54;28.55;100253.94;5095474;28;20052;-9
2022/08/15 03:40:48;;;;;;;2.13;1.92;;;28.60;45.00;;;32.55;28.88;100255.63;5095149;28;20047;-10
2022/08/15 03:43:27;;;;;;;2.78;2.50;;;28.60;45.00;;;32.55;28.78;100262.91;5095595;28;20381;-9
2022/08/15 03:46:03;;;;;;;2.70;2.50;;;28.60;45.00;;;32.51;28.55;100257.00;5095172;28;20040;-9
2022/08/15 03:48:35;;;;;;;2.47;2.28;;;28.60;45.10;;;32.52;28.70;100247.88;5090948;28;20070;-9
2022/08/15 03:51:04;;;;;;;2.67;2.47;;;28.60;45.10;;;32.48;28.64;100244.72;5093194;28;20040;-10
2022/08/15 03:53:43;;;;;;;2.75;2.50;;;28.50;45.00;;;32.53;28.70;100254.13;5095353;28;20423;-10
2022/08/15 03:56:14;;;;;;;2.92;2.72;;;28.50;45.00;;;32.49;29.07;100251.81;5064193;28;20917;-10
2022/08/15 03:58:41;;;;;;;2.63;2.40;;;28.60;45.10;;;32.50;29.06;100253.47;5094725;28;20052;-10
2022/08/15 04:01:19;;;;;;;2.50;2.30;;;28.50;45.00;;;32.50;28.60;100253.47;5111168;28;20044;-9
2022/08/15 04:03:48;;;;;;;2.53;2.33;;;28.50;45.10;;;32.48;28.82;100252.00;5095352;28;20056;-10
2022/08/15 04:06:19;;;;;;;2.78;2.50;;;28.50;45.10;;;32.50;28.63;100258.06;5094307;28;20492;-10
2022/08/15 04:08:50;;;;;;;2.60;2.40;;;28.50;45.10;;;32.50;28.66;100260.75;5093343;28;20113;-9
2022/08/15 04:11:19;;;;;;;2.63;2.42;;;28.50;45.10;;;32.48;28.55;100254.69;5112975;28;20046;-9
2022/08/15 04:13:46;;;;;;;2.88;2.38;;;28.50;45.10;;;32.49;28.69;100249.09;5113214;28;20144;-9
2022/08/15 04:16:14;;;;;;;2.88;2.67;;;28.50;45.10;;;32.50;28.62;100247.22;5078323;28;20138;-10
2022/08/15 04:18:41;;;;;;;2.45;2.25;;;28.50;45.10;;;32.48;29.04;100249.28;5094842;28;20047;-10
2022/08/15 04:21:11;;;;;;;2.67;2.40;;;28.50;45.10;;;32.46;28.71;100248.63;5094438;28;20493;-10
2022/08/15 04:23:39;;;;;;;2.85;2.45;;;28.50;45.10;;;32.47;28.74;100243.00;5094348;28;20097;-9
2022/08/15 04:26:05;;;;;;;2.70;2.50;;;28.50;45.10;;;32.52;28.99;100257.88;5094310;28;20092;-9
2022/08/15 04:28:31;;;;;;;2.72;2.45;;;28.50;45.00;;;32.49;29.06;100249.09;5112550;28;20039;-10
2022/08/15 04:31:00;;;;;;;3.00;2.70;;;28.60;45.10;;;32.50;29.07;100249.94;5093463;28;20044;-9
2022/08/15 04:33:29;;;;;;;2.60;2.40;;;28.60;44.90;;;32.54;28.65;100245.81;5094209;28;20108;-9
2022/08/15 04:36:12;;;;;;;2.63;2.42;;;28.70;44.90;;;32.54;28.73;100236.88;5094182;28;20054;-10
2022/08/15 04:38:43;;;;;;;3.08;2.80;;;28.60;44.80;;;32.60;28.79;100241.53;5078088;28;20095;-10
2022/08/15 04:41:11;;;;;;;2.63;2.42;;;28.70;44.80;;;32.61;28.54;100241.38;5094827;28;20047;-9
2022/08/15 04:43:40;;;;;;;3.05;2.70;;;28.70;44.80;;;32.60;28.57;100241.53;5094507;28;20044;-9
2022/08/15 04:46:09;;;;;;;3.33;2.70;;;28.70;44.80;;;32.61;28.94;100238.69;5094229;28;20039;-10
2022/08/15 04:48:36;;;;;;;3.42;2.40;;;28.70;44.80;;;32.65;28.77;100239.97;5094358;28;20405;-10
2022/08/15 04:51:04;;;;;;;3.17;2.78;;;28.70;44.80;;;32.66;28.46;100238.09;5094467;28;20052;-9
2022/08/15 04:53:34;;;;;;;2.58;2.38;;;28.80;44.80;;;32.66;28.52;100235.38;5112400;28;20048;-10
2022/08/15 04:56:06;;;;;;;3.15;2.63;;;28.80;44.80;;;32.71;28.52;100243.78;5078184;28;20392;-9
2022/08/15 04:58:35;;;;;;;2.65;2.33;;;28.80;44.80;;;32.73;28.47;100240.88;5110642;28;20043;-10
2022/08/15 05:01:11;;;;;;;2.97;2.38;;;28.80;44.70;;;32.70;28.38;100236.72;5093989;28;20087;-9
2022/08/15 05:03:46;;;;;;;2.97;2.50;;;28.80;44.60;;;32.77;28.38;100234.09;5093982;28;20043;-10
2022/08/15 05:06:12;;;;;;;2.75;2.55;;;28.90;44.60;;;32.80;28.60;100239.13;5112104;28;20092;-10
2022/08/15 05:08:39;;;;;;;3.08;2.30;;;28.90;44.60;;;32.77;28.79;100234.91;5089919;28;20079;-10
2022/08/15 05:11:17;;;;;;;2.47;2.22;;;29.00;44.60;;;32.79;28.46;100227.44;5091003;28;20055;-10
2022/08/15 05:13:48;;;;;;;2.65;2.45;;;29.00;44.50;;;32.86;28.38;100228.38;5077868;28;20051;-10
2022/08/15 05:16:26;;;;;;;2.58;2.38;;;29.00;44.40;;;32.85;28.83;100213.16;5094204;28;20134;-9
2022/08/15 05:18:52;;;;;;;3.08;2.72;;;29.10;44.40;;;32.91;28.61;100218.84;5096535;28;20524;-9
2022/08/15 05:21:19;;;;;;;2.90;2.60;;;29.00;44.30;;;32.94;28.67;100216.59;5097123;28;20098;-9
2022/08/15 05:23:45;;;;;;;3.33;2.20;;;29.10;44.30;;;32.98;28.63;100200.78;5097393;28;20047;-10
2022/08/15 05:26:22;;;;;;;2.70;2.42;;;29.20;44.20;;;33.00;28.21;100204.16;5097086;28;20068;-10
2022/08/15 05:28:48;;;;;;;2.60;2.40;;;29.20;44.10;;;33.06;28.11;100208.81;5115205;28;20081;-10
2022/08/15 05:31:14;;;;;;;2.58;2.35;;;29.30;44.10;;;33.09;28.37;100208.41;5095762;28;20040;-10
2022/08/15 05:33:46;;;;;;;2.60;2.40;;;29.30;44.10;;;33.12;28.48;100202.63;5078495;28;20044;-9
2022/08/15 05:36:13;;;;;;;2.20;2.00;;;29.40;44.00;;;33.15;28.05;100213.13;5095006;28;20052;-9
2022/08/15 05:38:58;;;;;;;2.70;2.30;;;29.40;43.90;;;33.19;28.18;100216.28;5096960;28;20051;-10
2022/08/15 05:41:33;;;;;;;2.47;2.30;;;29.40;43.80;;;33.27;28.15;100209.91;5081050;28;20040;-10
2022/08/15 05:44:13;;;;;;;3.05;2.20;;;29.50;43.80;;;33.29;28.25;100215.97;5096805;28;20400;-9
2022/08/15 05:46:46;;;;;;;3.25;2.30;;;29.50;43.70;;;33.31;27.86;100208.47;5097240;28;20050;-10
2022/08/15 05:49:35;;;;;;;2.70;2.50;;;29.60;43.70;;;33.33;27.81;100201.00;5080425;28;20101;-9
2022/08/15 05:52:32;;;;;;;2.33;2.13;;;29.60;43.70;;;33.40;27.70;100208.16;5078550;28;20052;-10
2022/08/15 05:55:25;;;;;;;2.60;2.40;;;29.60;43.60;;;33.42;27.91;100207.97;5080002;28;20130;-9
2022/08/15 05:58:22;;;;;;;3.33;2.35;;;29.60;43.50;;;33.46;27.72;100205.72;5097132;28;20044;-10
2022/08/15 06:01:15;;;;;;;3.42;2.35;;;29.70;43.50;;;33.50;27.88;100209.72;5078647;28;20063;-9
2022/08/15 06:04:08;;;;;;;2.92;2.25;;;29.70;43.40;;;33.50;27.77;100197.00;5096553;28;20139;-10
2022/08/15 06:06:38;;;;;;;3.42;2.50;;;29.80;43.40;;;33.59;27.71;100198.53;5079675;28;20094;-9
2022/08/15 06:09:14;;;;;;;2.45;2.20;;;29.80;43.40;;;33.60;27.82;100197.50;5079517;28;20048;-10
2022/08/15 06:11:46;;;;;;;2.80;2.60;;;29.90;43.40;;;33.64;27.84;100199.81;5096445;28;20405;-10
2022/08/15 06:14:37;;;;;;;3.17;2.28;;;29.90;43.30;;;33.68;27.36;100198.38;5096893;28;20054;-9
2022/08/15 06:17:17;;;;;;;2.67;2.47;;;29.90;43.30;;;33.72;27.46;100197.84;5078977;28;20052;-10
2022/08/15 06:19:47;;;;;;;2.40;2.20;;;30.00;43.30;;;33.75;27.67;100200.16;5078348;28;20101;-10
2022/08/15 06:22:43;;;;;;;2.70;2.50;;;30.00;43.20;;;33.79;27.46;100201.44;5095087;28;20151;-10
2022/08/15 06:26:02;;;;;;;2.65;2.45;;;30.00;43.10;;;33.86;27.43;100195.22;5077626;28;20080;-10
2022/08/15 06:29:08;;;;;;;2.92;2.55;;;30.10;43.10;;;33.89;27.22;100195.69;5094519;28;20048;-10
2022/08/15 06:31:41;;;;;;;2.53;2.33;;;30.10;43.00;;;33.90;27.38;100191.94;5096014;28;20040;-9
2022/08/15 06:34:38;;;;;;;2.55;2.35;;;30.10;43.00;;;33.95;27.27;100194.06;5079860;28;20043;-9
2022/08/15 06:37:48;;;;;;;2.78;2.55;;;30.20;42.90;;;34.02;27.07;100196.81;5095821;28;20090;-9
2022/08/15 06:40:41;;;;;;;2.40;2.20;;;30.20;42.90;;;34.05;27.18;100199.13;5078019;28;20515;-10
2022/08/15 06:43:12;;;;;;;2.10;2.00;;;30.30;42.90;;;34.07;27.26;100188.94;5079108;28;20079;-10
2022/08/15 06:46:05;;;;;;;1.95;1.85;;;30.30;42.80;;;34.13;27.00;100196.25;5095942;28;20485;-10
2022/08/15 06:48:35;;;;;;;2.90;2.60;;;30.40;42.80;;;34.12;27.17;100187.28;5094247;28;20047;-10
2022/08/15 06:51:06;;;;;;;4.05;2.17;;;30.40;42.70;;;34.12;27.11;100190.00;5079170;28;20382;-9
2022/08/15 06:53:41;;;;;;;2.50;2.30;;;30.40;42.70;;;34.19;26.82;100192.75;5079591;28;20396;-10
2022/08/15 06:56:33;;;;;;;2.40;2.20;;;30.40;42.60;;;34.22;27.00;100184.25;5095948;28;20405;-10
2022/08/15 06:59:14;;;;;;;2.20;2.10;;;30.40;42.60;;;34.25;27.01;100181.13;5095506;28;20516;-10
2022/08/15 07:02:13;;;;;;;2.50;2.30;;;30.50;42.60;;;34.30;26.80;100181.38;5078644;28;20051;-9
2022/08/15 07:05:05;;;;;;;2.53;2.33;;;30.50;42.50;;;34.31;26.93;100174.06;5094988;28;20285;-9
2022/08/15 07:08:09;;;;;;;2.53;2.30;;;30.50;42.50;;;34.32;27.02;100173.03;5112124;28;20587;-10
2022/08/15 07:10:46;;;;;;;2.40;2.20;;;30.60;42.50;;;34.37;27.06;100169.72;5095981;28;20135;-10
2022/08/15 07:13:25;;;;;;;2.40;2.20;;;30.60;42.50;;;34.34;26.90;100171.78;5095711;28;20089;-10
2022/08/15 07:16:20;;;;;;;2.60;2.40;;;30.60;42.50;;;34.42;26.76;100181.66;5094200;28;20048;-10
2022/08/15 07:18:51;;;;;;;2.50;2.25;;;30.60;42.40;;;34.42;26.75;100175.38;5074010;28;20051;-10
2022/08/15 07:21:36;;;;;;;2.50;2.30;;;30.60;42.40;;;34.45;26.42;100169.53;5081128;28;20081;-10
2022/08/15 07:24:23;;;;;;;2.42;2.22;;;30.60;42.40;;;34.46;26.73;100163.06;5078344;28;20522;-10
2022/08/15 07:26:54;;;;;;;3.05;2.75;;;30.60;42.40;;;34.49;26.55;100170.81;5095118;28;20036;-10
2022/08/15 07:29:32;;;;;;;;;;;30.60;42.40;;;34.63;26.48;100169.84;5096172;28;20143;-10
2022/08/15 07:32:18;;;;;;;2.75;2.33;;;30.60;42.40;;;34.55;26.58;100174.59;5095659;28;20067;-10
2022/08/15 07:35:12;;;;;;;2.70;2.30;;;30.60;42.40;;;34.52;26.71;100179.38;5095045;28;20066;-9
2022/08/15 07:38:05;;;;;;;2.33;2.22;;;30.60;42.40;;;34.52;26.72;100173.13;5095125;28;20051;-9
2022/08/15 07:40:42;;;;;;;2.60;2.40;;;30.60;42.40;;;34.52;26.54;100168.53;5064912;28;20054;-10
2022/08/15 07:43:28;;;;;;;4.43;2.60;;;30.60;42.40;;;34.52;26.37;100170.41;5078587;28;20580;-10
2022/08/15 07:46:07;;;;;;;2.60;2.40;;;30.60;42.50;;;34.55;26.71;100180.88;5077847;28;20489;-9
2022/08/15 07:48:34;;;;;;;2.33;2.13;;;30.60;42.50;;;34.52;26.53;100165.81;5091295;28;20052;-10
2022/08/15 07:51:15;;;;;;;2.75;2.53;;;30.60;42.40;;;34.53;26.67;100161.22;5094966;28;20139;-10
2022/08/15 07:54:00;;;;;;;2.53;2.33;;;30.60;42.50;;;34.54;26.63;100167.50;5094800;28;20527;-10
2022/08/15 07:56:34;;;;;;;2.38;2.20;;;30.60;42.50;;;34.56;26.75;100163.53;5094826;28;20146;-10
2022/08/15 07:59:18;;;;;;;2.75;2.55;;;30.60;42.40;;;34.52;26.54;100165.00;5089929;28;20044;-10
2022/08/15 08:01:47;;;;;;;2.75;2.40;;;30.60;42.50;;;34.51;26.54;100164.13;5095009;28;20089;-10
2022/08/15 08:04:19;;;;;;;2.50;2.30;;;30.60;42.50;;;34.53;26.30;100166.66;5113044;28;20040;-10
2022/08/15 08:06:52;;;;;;;3.13;2.60;;;30.60;42.50;;;34.58;26.78;100168.75;5094583;28;20039;-10
2022/08/15 08:09:40;;;;;;;2.60;2.35;;;30.60;42.50;;;34.57;26.55;100169.81;5087774;28;20047;-10
2022/08/15 08:12:58;;;;;;;2.65;2.45;;;30.60;42.50;;;34.52;26.59;100168.53;5092897;28;20083;-10
2022/08/15 08:15:52;;;;;;;2.97;2.67;;;30.60;42.50;;;34.55;26.41;100167.31;4999276;28;20470;-10
2022/08/15 08:18:43;;;;;;;2.53;2.33;;;30.60;42.50;;;34.52;26.51;100162.28;5013283;28;20427;-9
2022/08/15 08:21:18;;;;;;;2.63;2.42;;;30.60;42.50;;;34.55;26.59;100152.88;5082167;28;20055;-10
2022/08/15 08:23:56;;;;;;;2.75;2.42;;;30.60;42.60;;;34.51;26.51;100166.84;5078604;28;20135;-9
2022/08/15 08:27:04;;;;;;;2.88;2.20;;;30.60;42.50;;;34.55;26.57;100166.44;5078173;28;20043;-9
2022/08/15 08:29:54;;;;;;;2.70;2.50;;;30.50;42.50;;;34.49;26.83;100165.38;5093464;28;20048;-9
2022/08/15 08:32:49;;;;;;;4.85;3.88;;;30.60;42.80;;;34.49;26.93;100170.81;5078819;28;20147;-10
2022/08/15 08:35:43;;;;;;;8.18;5.15;;;30.50;43.50;;;34.46;27.52;100168.50;5112468;28;20135;-9
2022/08/15 08:38:27;;;;;;;5.68;5.05;;;30.40;44.20;;;34.42;27.78;100170.78;5093947;28;20400;-10
2022/08/15 08:41:25;;;;;;;8.75;4.90;;;30.30;44.50;;;34.35;27.63;100159.06;5112390;28;20047;-10
2022/08/15 08:44:41;;;;;;;9.50;5.78;;;30.30;44.90;;;34.35;27.86;100172.63;5112401;28;20050;-10
2022/08/15 08:47:22;;;;;;;6.47;5.88;;;30.20;45.00;;;34.29;28.14;100168.84;5111981;28;20051;-10
2022/08/15 08:49:55;;;;;;;;;;;30.20;45.30;;;34.37;27.90;100157.00;5092647;28;20117;-10
2022/08/15 08:52:39;;;;;;;7.03;5.93;;;30.20;45.50;;;34.28;28.11;100169.03;5114612;28;19926;-10
2022/08/15 08:55:20;;;;;;;8.20;6.15;;;30.20;45.50;;;34.22;28.43;100164.44;5097689;28;20040;-10
2022/08/15 08:57:58;;;;;;;6.63;5.93;;;30.10;45.60;;;34.18;28.62;100160.38;5097151;28;20039;-9
2022/08/15 09:00:42;;;;;;;8.00;6.20;;;30.10;45.80;;;34.12;28.71;100168.28;5097874;28;20047;-11
2022/08/15 09:03:31;;;;;;;8.57;6.30;;;30.10;46.20;;;34.12;28.93;100167.47;5116116;28;20052;-10
2022/08/15 09:05:58;;;;;;;7.00;6.30;;;30.00;46.40;;;34.10;28.64;100172.25;5115626;28;20051;-10
2022/08/15 09:08:37;;;;;;;9.75;6.95;;;30.00;46.10;;;34.04;28.90;100164.91;5097042;28;20413;-11
2022/08/15 09:11:19;;;;;;;9.65;6.82;;;30.00;46.20;;;34.05;29.26;100164.72;5097470;28;20047;-11
2022/08/15 09:13:47;;;;;;;8.80;6.63;;;30.00;46.30;;;34.01;29.09;100154.44;5096795;28;20055;-11
2022/08/15 09:16:30;;;;;;;7.07;6.38;;;30.00;46.20;;;33.98;28.70;100161.09;5097340;28;20051;-11
2022/08/15 09:19:15;;;;;;;9.88;6.63;;;29.90;46.10;;;33.99;28.67;100161.97;5115841;28;20054;-17
2022/08/15 09:21:43;;;;;;;7.60;6.75;;;29.90;46.10;;;33.90;28.93;100153.97;5097390;28;20047;-10
2022/08/15 09:24:10;;;;;;;8.95;6.57;;;29.90;46.00;;;33.93;28.88;100155.44;5115821;28;20043;-11
2022/08/15 09:26:51;;;;;;;9.18;6.60;;;29.80;46.00;;;33.88;29.05;100144.34;5115622;28;20101;-11
2022/08/15 09:29:27;;;;;;;7.30;6.25;;;29.80;46.00;;;33.89;28.91;100151.47;5097182;28;20054;-11
2022/08/15 09:32:26;;;;;;;9.48;6.88;;;29.80;46.00;;;33.88;29.29;100147.06;5115638;28;20044;-10
2022/08/15 09:35:39;;;;;;;9.63;7.30;;;29.80;46.10;;;33.86;28.97;100146.44;5115342;28;20135;-11
2022/08/15 09:38:23;;;;;;;11.82;7.18;;;29.90;46.30;;;33.87;29.04;100138.09;5096393;28;20056;-11
2022/08/15 09:41:44;;;;;;;12.23;8.00;;;29.90;46.30;;;33.87;29.19;100139.97;5096915;28;20413;-11
2022/08/15 09:44:37;;;;;;;11.25;7.57;;;29.90;46.60;;;33.85;29.32;100147.44;4996368;28;20049;-11
2022/08/15 09:47:39;;;;;;;15.25;8.38;;;29.80;46.70;;;33.81;29.59;100130.75;5012486;28;20054;-11
2022/08/15 09:50:44;;;;;;;11.70;8.18;;;29.80;47.00;;;33.78;29.60;100140.13;5095994;28;20048;-11
2022/08/15 09:53:40;;;;;;;8.57;7.38;;;29.70;47.00;;;33.78;29.56;100141.97;5097114;28;20047;-11
2022/08/15 09:56:12;;;;;;;12.85;8.48;;;29.70;47.00;;;33.73;29.72;100134.47;5115286;28;20070;-11
2022/08/15 09:58:57;;;;;;;11.85;7.55;;;29.70;46.90;;;33.71;29.82;100139.22;5096349;28;20055;-11
2022/08/15 10:01:29;;;;;;;14.15;8.18;;;29.70;46.90;;;33.74;29.51;100138.81;5096510;28;20048;-10
2022/08/15 10:04:03;;;;;;;12.15;7.25;;;29.70;46.90;;;33.73;29.63;100136.31;5114248;28;20134;-11
2022/08/15 10:06:47;;;;;;;8.80;7.20;;;29.70;46.80;;;33.76;29.78;100123.22;5096612;28;20048;-11
2022/08/15 10:09:34;;;;;;;8.10;7.00;;;29.80;46.90;;;33.75;29.68;100126.13;5096382;28;20477;-11
2022/08/15 10:12:06;;;;;;;12.00;7.68;;;29.80;47.10;;;33.81;29.51;100136.16;5114394;28;20048;-11
2022/08/15 10:14:47;;;;;;;11.93;8.13;;;29.90;46.90;;;33.77;29.56;100127.59;5114574;28;20053;-10
2022/08/15 10:17:41;;;;;;;13.85;7.50;;;29.80;46.70;;;33.77;29.48;100130.31;5114231;28;20055;-11
2022/08/15 10:20:14;;;;;;;10.50;7.55;;;29.70;46.70;;;33.78;30.08;100123.00;5114943;28;20493;-10
2022/08/15 10:23:00;;;;;;;8.75;7.80;;;29.80;47.30;;;33.77;29.64;100119.47;5114860;28;20507;-10
2022/08/15 10:25:36;;;;;;;9.15;8.02;;;29.80;46.80;;;33.74;29.55;100114.44;5096808;28;20047;-11
2022/08/15 10:28:07;;;;;;;10.38;8.00;;;29.80;46.60;;;33.76;29.54;100122.38;5114242;28;20048;-11
2022/08/15 10:30:37;;;;;;;12.23;8.57;;;29.70;46.70;;;33.74;29.87;100114.44;5114676;28;20466;-10
2022/08/15 10:33:30;;;;;;;9.30;8.30;;;29.70;46.70;;;33.72;30.00;100112.97;5114799;28;20051;-11
2022/08/15 10:36:14;;;;;;;12.02;7.57;;;29.70;46.70;;;33.71;29.46;100111.28;5114537;28;20503;-10
2022/08/15 10:39:19;;;;;;;8.93;8.02;;;29.70;46.70;;;33.70;29.86;100106.91;5114104;28;20513;-11
2022/08/15 10:41:45;;;;;;;9.50;7.80;;;29.70;46.70;;;33.71;29.83;100114.00;5095987;28;20137;-11
2022/08/15 10:44:49;;;;;;;11.80;8.20;;;29.70;46.60;;;33.68;29.47;100106.22;5114252;28;20138;-11
2022/08/15 10:47:42;;;;;;;12.80;8.65;;;29.70;46.50;;;33.66;29.66;100103.69;5113875;28;20104;-11
2022/08/15 10:50:34;;;;;;;9.88;8.88;;;29.60;46.50;;;33.66;29.71;100100.16;5113944;28;20070;-10
2022/08/15 10:53:23;;;;;;;9.95;7.85;;;29.60;46.60;;;33.60;29.54;100093.66;5113953;28;20508;-11
2022/08/15 10:55:49;;;;;;;11.68;9.05;;;29.60;46.50;;;33.67;29.63;100099.13;5096088;28;20062;-10
2022/08/15 10:58:24;;;;;;;9.88;8.20;;;29.70;46.40;;;33.63;29.46;100085.16;5113901;28;20051;-11
2022/08/15 11:01:07;;;;;;;11.40;8.07;;;29.70;46.30;;;33.63;29.63;100100.56;5096286;28;20047;-11